Time;durP1;ratioP1;P1;durP2;ratioP2;P2;SDS_P1;SDS_P2;PMS_P1;PMS_P2;Temp;Humidity;BMP_temperature;BMP_pressure;BME280_temperature;BME280_humidity;BME280_pressure;Samples;Min_cycle;Max_cycle;Signal;HPM_P1;HPM_P2
2022/07/02 00:01:24;;;;;;;12.90;9.50;;;;;;;18.07;81.77;97458.52;109745;1250;70810;-70
2022/07/02 00:03:57;;;;;;;13.40;10.80;;;;;;;18.05;82.35;97456.62;110020;1250;68580;-70
2022/07/02 00:06:30;;;;;;;12.70;10.50;;;;;;;18.01;82.97;97456.13;109688;1253;67669;-69
2022/07/02 00:09:01;;;;;;;11.60;10.40;;;;;;;17.98;83.30;97455.39;109896;1249;59683;-71
2022/07/02 00:11:31;;;;;;;12.10;9.60;;;;;;;17.97;82.05;97453.57;109845;1250;59770;-70
2022/07/02 00:14:03;;;;;;;22.40;14.10;;;;;;;17.96;80.52;97451.17;110021;1249;71591;-67
2022/07/02 00:16:32;;;;;;;23.70;17.10;;;;;;;17.96;81.09;97451.38;109890;1250;66947;-70
2022/07/02 00:19:02;;;;;;;24.20;16.60;;;;;;;17.95;81.56;97454.16;109801;1250;69958;-70
2022/07/02 00:21:37;;;;;;;22.00;15.30;;;;;;;17.92;83.00;97453.20;110109;1248;60088;-71
2022/07/02 00:24:09;;;;;;;20.10;15.10;;;;;;;17.87;83.60;97453.38;109888;1251;59667;-69
2022/07/02 00:26:46;;;;;;;19.90;15.00;;;;;;;17.83;83.23;97452.58;109828;1251;69722;-70
2022/07/02 00:29:50;;;;;;;15.80;12.90;;;;;;;17.80;83.36;97458.69;109971;1250;68531;-70
2022/07/02 00:32:21;;;;;;;15.10;12.00;;;;;;;17.77;82.99;97454.02;109863;1251;69483;-72
2022/07/02 00:34:51;;;;;;;13.70;11.60;;;;;;;17.75;83.54;97453.02;110091;1251;59769;-71
2022/07/02 00:37:26;;;;;;;13.50;12.00;;;;;;;17.71;83.12;97449.84;110007;1250;59693;-71
2022/07/02 00:39:56;;;;;;;16.00;11.30;;;;;;;17.69;83.25;97446.55;110169;1250;70788;-71
2022/07/02 00:42:26;;;;;;;14.40;12.90;;;;;;;17.68;83.02;97445.02;109958;1250;68466;-71
2022/07/02 00:44:57;;;;;;;;;;;;;;;17.68;83.54;97444.50;109893;1251;68729;-69
2022/07/02 00:47:30;;;;;;;11.50;9.30;;;;;;;17.68;82.53;97445.92;110069;1250;59682;-71
2022/07/02 00:50:05;;;;;;;12.30;10.90;;;;;;;17.68;84.04;97444.49;109954;1250;59780;-69
2022/07/02 00:52:35;;;;;;;13.10;10.80;;;;;;;17.69;84.25;97444.80;109818;1252;70738;-73
2022/07/02 00:55:07;;;;;;;12.30;11.00;;;;;;;17.71;84.27;97448.98;110023;1250;68388;-71
2022/07/02 00:57:36;;;;;;;12.30;10.10;;;;;;;17.73;84.16;97447.55;109830;1251;68843;-70
2022/07/02 01:00:08;;;;;;;12.40;10.00;;;;;;;17.74;82.81;97443.39;110050;1250;59669;-70
2022/07/02 01:02:40;;;;;;;11.50;10.00;;;;;;;17.74;83.82;97443.77;109715;1252;59719;-70
2022/07/02 01:05:10;;;;;;;13.40;10.40;;;;;;;17.73;82.38;97442.02;110096;1248;71519;-69
2022/07/02 01:10:16;;;;;;;12.40;10.50;;;;;;;17.75;84.21;97443.23;109869;1251;68387;-69
2022/07/02 01:10:44;;;;;;;15.90;10.70;;;;;;;17.78;83.94;97438.73;110040;1247;68695;-68
2022/07/02 01:13:15;;;;;;;10.60;9.50;;;;;;;17.81;83.38;97438.24;110085;1250;59761;-70
2022/07/02 01:15:44;;;;;;;;;;;;;;;17.87;84.65;97438.27;109997;1250;59713;-71
2022/07/02 01:18:17;;;;;;;12.80;10.90;;;;;;;17.91;83.96;97436.58;109816;1252;71369;-70
2022/07/02 01:20:46;;;;;;;10.70;9.60;;;;;;;17.97;84.92;97431.91;109794;1250;68458;-72
2022/07/02 01:23:16;;;;;;;10.40;9.20;;;;;;;18.02;84.07;97431.05;109969;1251;69414;-69
2022/07/02 01:25:51;;;;;;;10.40;9.30;;;;;;;18.05;81.48;97429.27;110017;1250;59770;-71
2022/07/02 01:28:23;;;;;;;12.20;10.00;;;;;;;18.06;80.42;97430.40;110014;1250;59702;-70
2022/07/02 01:30:54;;;;;;;9.50;8.50;;;;;;;18.05;80.21;97427.55;110140;1249;70573;-72
2022/07/02 01:33:25;;;;;;;10.90;9.40;;;;;;;18.03;80.41;97432.30;110081;1249;67704;-69
2022/07/02 01:35:55;;;;;;;11.80;10.60;;;;;;;18.01;82.95;97430.05;109981;1250;69422;-73
2022/07/02 01:38:25;;;;;;;12.00;10.40;;;;;;;18.01;83.24;97430.97;109913;1250;60051;-72
2022/07/02 01:41:38;;;;;;;12.20;10.50;;;;;;;17.99;83.72;97427.77;109992;1251;59699;-72
2022/07/02 01:43:46;;;;;;;;;;;;;;;17.97;84.46;97432.96;109899;1251;70770;-71
2022/07/02 01:46:17;;;;;;;12.40;10.80;;;;;;;17.95;84.64;97433.48;109817;1250;68596;-68
2022/07/02 01:48:47;;;;;;;13.30;10.50;;;;;;;17.95;84.71;97431.70;110109;1250;68709;-70
2022/07/02 01:51:16;;;;;;;14.40;10.80;;;;;;;17.96;83.28;97434.81;110039;1250;59708;-70
2022/07/02 01:53:47;;;;;;;11.40;10.00;;;;;;;17.96;82.66;97432.67;109893;1248;59698;-70
2022/07/02 01:56:18;;;;;;;12.00;10.30;;;;;;;17.99;83.42;97438.50;109967;1251;71598;-70
2022/07/02 01:58:49;;;;;;;12.30;10.60;;;;;;;18.03;83.51;97434.96;110159;1248;67837;-68
2022/07/02 02:01:20;;;;;;;14.90;11.60;;;;;;;18.03;82.30;97435.02;110204;1247;69408;-70
2022/07/02 02:03:51;;;;;;;16.00;12.00;;;;;;;17.99;82.01;97433.94;110101;1248;59766;-69
2022/07/02 02:06:22;;;;;;;12.70;11.30;;;;;;;17.96;83.12;97433.56;110032;1251;59749;-71
2022/07/02 02:08:54;;;;;;;14.00;12.00;;;;;;;17.95;84.03;97435.80;110267;1248;71515;-71
2022/07/02 02:11:26;;;;;;;13.40;11.90;;;;;;;17.92;84.90;97433.06;110244;1248;68414;-68
2022/07/02 02:13:58;;;;;;;17.60;12.60;;;;;;;17.92;85.15;97434.39;110142;1250;67889;-69
2022/07/02 02:16:31;;;;;;;13.10;11.30;;;;;;;17.92;84.12;97435.81;110009;1250;59711;-69
2022/07/02 02:19:02;;;;;;;13.30;10.40;;;;;;;17.92;82.61;97440.38;110199;1249;59625;-70
2022/07/02 02:21:32;;;;;;;13.40;11.90;;;;;;;17.92;82.05;97440.73;110222;1247;70802;-70
2022/07/02 02:24:03;;;;;;;14.90;12.10;;;;;;;17.92;82.86;97444.02;110011;1248;67653;-69
2022/07/02 02:26:36;;;;;;;17.30;12.20;;;;;;;17.94;83.82;97440.73;110161;1249;69412;-70
2022/07/02 02:29:07;;;;;;;13.40;11.50;;;;;;;17.96;84.78;97442.55;110200;1248;59751;-69
2022/07/02 02:31:37;;;;;;;10.50;9.10;;;;;;;17.99;83.84;97443.53;109832;1251;59758;-68
2022/07/02 02:34:08;;;;;;;11.30;8.80;;;;;;;18.01;82.00;97442.20;110202;1249;71585;-71
2022/07/02 02:36:37;;;;;;;11.10;9.20;;;;;;;18.00;81.63;97445.85;110122;1248;67911;-70
2022/07/02 02:39:07;;;;;;;12.40;10.70;;;;;;;17.99;81.49;97447.05;110158;1247;68273;-69
2022/07/02 02:41:38;;;;;;;15.70;11.20;;;;;;;17.95;81.46;97449.61;110200;1250;60056;-70
2022/07/02 02:44:08;;;;;;;11.60;9.80;;;;;;;17.91;81.61;97448.27;110160;1248;59640;-68
2022/07/02 02:46:38;;;;;;;11.70;10.10;;;;;;;17.88;81.70;97449.45;109927;1250;70589;-69
2022/07/02 02:49:08;;;;;;;12.70;10.30;;;;;;;17.83;83.75;97451.99;110145;1247;67946;-71
2022/07/02 02:51:37;;;;;;;12.30;10.90;;;;;;;17.80;83.33;97452.31;110087;1250;68550;-73
2022/07/02 02:54:09;;;;;;;13.60;10.30;;;;;;;17.79;85.07;97459.10;110208;1250;59714;-69
2022/07/02 02:56:40;;;;;;;11.60;9.40;;;;;;;17.80;84.36;97469.07;110294;1248;59728;-70
2022/07/02 02:59:10;;;;;;;12.40;11.10;;;;;;;17.81;84.93;97471.75;110182;1249;71337;-72
2022/07/02 03:01:39;;;;;;;14.60;10.20;;;;;;;17.83;84.63;97473.57;110097;1248;68415;-70
2022/07/02 03:04:09;;;;;;;11.60;10.40;;;;;;;17.85;85.35;97479.38;110173;1250;68114;-71
2022/07/02 03:06:40;;;;;;;11.90;9.60;;;;;;;17.87;85.75;97483.21;110266;1248;59704;-70
2022/07/02 03:09:10;;;;;;;11.30;9.40;;;;;;;17.91;85.20;97488.08;109968;1250;59695;-70
2022/07/02 03:11:41;;;;;;;13.90;10.60;;;;;;;17.96;85.53;97488.98;110209;1248;70565;-71
2022/07/02 03:14:11;;;;;;;11.50;9.70;;;;;;;18.01;85.06;97491.83;110232;1250;68789;-70
2022/07/02 03:16:41;;;;;;;13.30;11.10;;;;;;;18.03;84.40;97494.40;110017;1249;69432;-72
2022/07/02 03:19:12;;;;;;;12.20;9.70;;;;;;;18.03;83.47;97492.79;110228;1247;59726;-70
2022/07/02 03:21:41;;;;;;;11.80;10.50;;;;;;;18.05;82.64;97493.84;109963;1251;59726;-71
2022/07/02 03:24:11;;;;;;;12.70;10.20;;;;;;;18.05;83.61;97498.44;110204;1248;71354;-70
2022/07/02 03:26:41;;;;;;;12.90;10.20;;;;;;;18.06;83.77;97496.22;110201;1248;68302;-68
2022/07/02 03:29:11;;;;;;;13.20;11.30;;;;;;;18.07;84.07;97497.89;109881;1250;69259;-71
2022/07/02 03:31:41;;;;;;;14.20;10.30;;;;;;;18.09;84.24;97502.11;109945;1250;59820;-71
2022/07/02 03:34:10;;;;;;;13.80;11.20;;;;;;;18.13;84.49;97500.97;110233;1247;59687;-69
2022/07/02 03:36:40;;;;;;;12.60;10.70;;;;;;;18.19;84.38;97499.59;110242;1250;71641;-70
2022/07/02 03:39:10;;;;;;;13.70;11.00;;;;;;;18.27;83.65;97499.49;110226;1248;68710;-71
2022/07/02 03:41:39;;;;;;;12.60;10.60;;;;;;;18.38;83.82;97499.25;110033;1250;69201;-72
2022/07/02 03:44:08;;;;;;;13.10;11.40;;;;;;;18.52;83.84;97503.48;110212;1250;59634;-71
2022/07/02 03:46:37;;;;;;;12.10;10.10;;;;;;;18.67;83.83;97508.25;110285;1247;59688;-71
2022/07/02 03:49:07;;;;;;;13.30;11.30;;;;;;;18.83;83.43;97508.38;110206;1248;71928;-71
2022/07/02 03:51:38;;;;;;;12.70;11.30;;;;;;;18.99;82.99;97510.35;110218;1247;68422;-69
2022/07/02 03:54:08;;;;;;;12.60;10.20;;;;;;;19.15;82.26;97513.54;110196;1247;68622;-69
2022/07/02 03:56:37;;;;;;;11.30;10.10;;;;;;;19.28;81.57;97516.11;110022;1251;59744;-68
2022/07/02 03:59:06;;;;;;;;;;;;;;;19.41;81.05;97515.63;109812;1251;59611;-72
2022/07/02 04:01:36;;;;;;;10.90;9.80;;;;;;;19.54;80.46;97520.23;110212;1247;71565;-70
2022/07/02 04:04:06;;;;;;;11.10;10.00;;;;;;;19.69;79.74;97518.61;110041;1250;68924;-70
2022/07/02 04:06:35;;;;;;;12.10;10.70;;;;;;;19.82;78.38;97516.89;109970;1249;69057;-69
2022/07/02 04:09:04;;;;;;;11.00;9.50;;;;;;;19.92;77.42;97519.70;110069;1250;59710;-71
2022/07/02 04:11:33;;;;;;;12.00;10.80;;;;;;;20.02;76.85;97521.27;110184;1247;59661;-70
2022/07/02 04:14:02;;;;;;;11.30;9.50;;;;;;;20.13;76.47;97519.82;109956;1248;71411;-70
2022/07/02 04:16:32;;;;;;;11.60;9.90;;;;;;;20.26;75.56;97521.26;110007;1248;68700;-70
2022/07/02 04:19:02;;;;;;;10.20;9.10;;;;;;;20.40;75.56;97527.10;110182;1248;68668;-70
2022/07/02 04:21:42;;;;;;;11.30;10.20;;;;;;;20.54;74.63;97525.78;110050;1248;59720;-69
2022/07/02 04:24:12;;;;;;;11.10;9.90;;;;;;;20.60;75.76;97531.81;110172;1247;59757;-69
2022/07/02 04:26:41;;;;;;;;;;;;;;;20.70;75.68;97537.45;110194;1247;71535;-69
2022/07/02 04:29:11;;;;;;;9.20;8.30;;;;;;;20.80;74.80;97544.61;110249;1248;68317;-71
2022/07/02 04:31:40;;;;;;;11.80;10.10;;;;;;;20.89;73.60;97544.50;110194;1247;70015;-69
2022/07/02 04:34:09;;;;;;;10.30;9.00;;;;;;;20.93;71.85;97553.32;109906;1250;59682;-70
2022/07/02 04:36:39;;;;;;;10.30;8.80;;;;;;;20.97;71.43;97564.45;110191;1248;60070;-70
2022/07/02 04:39:09;;;;;;;13.60;12.10;;;;;;;20.89;71.54;97574.75;109991;1251;71532;-69
2022/07/02 04:41:38;;;;;;;11.80;10.60;;;;;;;20.92;71.06;97574.64;109948;1250;67799;-70
2022/07/02 04:44:08;;;;;;;10.50;9.50;;;;;;;20.89;69.95;97580.71;109988;1248;69313;-69
2022/07/02 04:46:37;;;;;;;10.90;9.80;;;;;;;20.92;70.48;97583.30;110181;1248;59752;-70
2022/07/02 04:49:06;;;;;;;11.00;9.70;;;;;;;20.98;70.47;97578.38;110041;1250;59643;-69
2022/07/02 04:51:35;;;;;;;10.60;9.50;;;;;;;21.01;70.07;97574.95;110171;1248;69785;-68
2022/07/02 04:54:04;;;;;;;9.90;8.90;;;;;;;21.07;69.88;97587.42;109998;1248;68662;-71
2022/07/02 04:56:34;;;;;;;10.40;9.40;;;;;;;21.13;70.15;97598.06;109768;1252;68320;-69
2022/07/02 04:59:04;;;;;;;9.60;8.70;;;;;;;21.21;70.20;97597.36;110073;1248;59755;-69
2022/07/02 05:01:34;;;;;;;;;;;;;;;21.30;69.69;97595.63;110251;1250;59799;-70
2022/07/02 05:04:03;;;;;;;10.70;9.60;;;;;;;21.39;69.11;97603.92;110259;1247;71808;-68
2022/07/02 05:06:33;;;;;;;10.80;9.70;;;;;;;21.42;68.63;97597.69;110213;1247;68403;-69
2022/07/02 05:09:04;;;;;;;10.70;9.60;;;;;;;21.47;68.26;97596.75;110195;1247;69058;-70
2022/07/02 05:11:38;;;;;;;11.20;9.80;;;;;;;21.52;68.33;97596.92;110294;1247;59724;-71
2022/07/02 05:14:08;;;;;;;10.00;9.00;;;;;;;21.53;68.04;97596.11;110023;1248;59665;-72
2022/07/02 05:16:37;;;;;;;11.60;10.40;;;;;;;21.59;68.28;97598.70;110222;1247;71341;-70
2022/07/02 05:19:08;;;;;;;10.70;9.60;;;;;;;21.66;68.25;97595.67;110013;1250;68622;-70
2022/07/02 05:21:46;;;;;;;13.70;9.60;;;;;;;21.72;67.79;97599.50;110010;1247;68764;-70
2022/07/02 05:24:16;;;;;;;10.20;9.10;;;;;;;21.80;68.05;97604.85;110225;1247;59670;-70
2022/07/02 05:26:46;;;;;;;9.90;8.90;;;;;;;21.86;68.04;97612.08;109952;1248;59746;-70
2022/07/02 05:29:22;;;;;;;9.70;8.70;;;;;;;21.94;68.18;97619.01;110030;1248;70761;-69
2022/07/02 05:32:03;;;;;;;10.20;9.10;;;;;;;21.97;67.74;97625.01;110164;1251;67476;-66
2022/07/02 05:34:39;;;;;;;11.20;10.10;;;;;;;21.94;67.83;97622.39;110061;1250;68470;-70
2022/07/02 05:37:08;;;;;;;10.80;9.80;;;;;;;21.89;67.98;97627.23;109923;1251;59677;-69
2022/07/02 05:39:48;;;;;;;11.60;10.40;;;;;;;21.86;67.89;97636.56;110202;1248;59670;-69
2022/07/02 05:42:24;;;;;;;11.50;10.20;;;;;;;21.85;68.14;97642.69;110283;1247;71511;-72
2022/07/02 05:44:53;;;;;;;10.20;9.20;;;;;;;21.87;67.60;97647.34;110192;1250;68084;-70
2022/07/02 05:47:22;;;;;;;11.90;10.80;;;;;;;21.92;67.66;97649.42;110135;1248;68506;-72
2022/07/02 05:49:52;;;;;;;11.80;10.60;;;;;;;21.90;67.79;97656.39;110188;1250;59702;-71
2022/07/02 05:52:22;;;;;;;11.30;10.20;;;;;;;21.88;67.60;97655.37;110206;1250;59675;-71
2022/07/02 05:54:53;;;;;;;11.50;10.30;;;;;;;21.86;68.42;97657.52;109821;1251;70600;-70
2022/07/02 05:57:30;;;;;;;12.10;10.90;;;;;;;21.87;68.52;97658.11;109886;1250;67722;-70
2022/07/02 06:00:09;;;;;;;11.10;9.70;;;;;;;21.88;68.57;97661.73;109850;1250;68957;-69
2022/07/02 06:02:43;;;;;;;11.60;10.50;;;;;;;21.88;68.91;97663.90;109961;1251;59691;-70
2022/07/02 06:08:00;;;;;;;13.10;11.60;;;;;;;21.79;69.83;97674.48;109959;1250;71616;-70
2022/07/02 06:10:30;;;;;;;11.10;10.10;;;;;;;21.83;69.52;97674.91;109923;1251;68092;-71
2022/07/02 06:12:59;;;;;;;12.00;10.80;;;;;;;21.87;68.50;97677.14;110141;1250;69513;-69
2022/07/02 06:15:28;;;;;;;;;;;;;;;21.92;68.07;97676.33;109734;1251;59772;-71
2022/07/02 06:18:01;;;;;;;10.90;9.50;;;;;;;21.98;68.01;97678.73;110190;1249;59716;-69
2022/07/02 06:20:30;;;;;;;12.30;9.80;;;;;;;22.10;67.77;97680.98;109917;1250;70840;-69
2022/07/02 06:22:59;;;;;;;11.10;10.00;;;;;;;22.16;67.47;97675.94;110167;1250;69302;-71
2022/07/02 06:25:29;;;;;;;;;;;;;;;22.28;67.60;97682.69;110034;1250;69339;-70
2022/07/02 06:27:58;;;;;;;12.10;10.90;;;;;;;22.30;67.78;97679.45;109784;1251;59749;-70
2022/07/02 06:30:29;;;;;;;12.30;11.00;;;;;;;22.40;67.54;97678.14;109932;1251;59680;-69
2022/07/02 06:32:59;;;;;;;10.50;9.50;;;;;;;22.47;66.75;97678.46;110165;1250;71407;-70
2022/07/02 06:35:28;;;;;;;12.10;10.10;;;;;;;22.58;66.41;97677.20;109934;1251;67987;-71
2022/07/02 06:37:57;;;;;;;10.60;9.60;;;;;;;22.79;66.42;97669.52;109951;1250;69282;-70
2022/07/02 06:40:26;;;;;;;10.30;9.20;;;;;;;23.18;65.81;97668.13;109984;1250;59834;-69
2022/07/02 06:42:55;;;;;;;10.20;9.10;;;;;;;23.51;64.79;97667.11;110163;1250;59638;-71
2022/07/02 06:45:25;;;;;;;10.10;8.40;;;;;;;23.71;64.12;97664.40;110143;1249;70972;-70
2022/07/02 06:47:54;;;;;;;9.90;8.80;;;;;;;23.84;62.78;97662.77;110222;1250;68535;-69
2022/07/02 06:50:23;;;;;;;11.70;10.20;;;;;;;24.00;61.55;97663.45;110104;1250;69473;-70
2022/07/02 06:52:52;;;;;;;10.90;9.90;;;;;;;24.24;61.04;97664.91;110168;1250;59742;-72
2022/07/02 06:55:21;;;;;;;9.50;8.60;;;;;;;24.73;59.52;97665.34;109931;1250;59694;-71
2022/07/02 06:57:50;;;;;;;11.10;10.00;;;;;;;25.42;59.88;97669.33;110130;1250;71599;-71
2022/07/02 07:00:21;;;;;;;11.20;10.10;;;;;;;26.04;58.66;97674.86;109963;1251;67807;-69
2022/07/02 07:02:51;;;;;;;11.50;10.20;;;;;;;26.67;55.79;97679.92;109833;1251;68613;-71
2022/07/02 07:05:23;;;;;;;11.30;9.20;;;;;;;27.16;52.83;97678.52;109860;1250;59709;-69
2022/07/02 07:07:52;;;;;;;10.50;9.40;;;;;;;27.64;51.37;97680.95;110169;1250;59620;-71
2022/07/02 07:10:21;;;;;;;9.60;8.60;;;;;;;27.98;50.96;97680.04;110140;1249;71980;-70
2022/07/02 07:12:50;;;;;;;;;;;;;;;28.45;49.66;97679.64;110188;1250;67928;-70
2022/07/02 07:15:19;;;;;;;9.30;8.40;;;;;;;28.87;48.95;97676.59;110133;1250;68682;-67
2022/07/02 07:17:49;;;;;;;;;;;;;;;29.40;47.21;97672.92;109972;1250;59754;-69
2022/07/02 07:20:29;;;;;;;9.60;8.50;;;;;;;29.89;45.40;97674.81;109945;1250;59665;-71
2022/07/02 07:22:59;;;;;;;11.00;9.70;;;;;;;30.36;45.17;97677.78;110142;1250;71430;-68
2022/07/02 07:25:28;;;;;;;10.80;9.70;;;;;;;30.52;44.06;97677.75;110194;1249;68622;-71
2022/07/02 07:27:57;;;;;;;9.40;8.60;;;;;;;30.63;43.17;97679.45;109315;1250;736499;-69
2022/07/02 07:30:26;;;;;;;;;;;;;;;30.89;43.82;97680.31;109903;1251;60217;-69
2022/07/02 07:32:55;;;;;;;10.30;9.40;;;;;;;31.20;42.06;97685.94;109959;1250;59707;-72
2022/07/02 07:35:24;;;;;;;10.20;9.20;;;;;;;31.41;41.99;97688.77;110117;1250;70814;-72
2022/07/02 07:37:59;;;;;;;11.40;9.80;;;;;;;31.59;42.25;97689.79;109644;1251;67898;-70
2022/07/02 07:40:30;;;;;;;10.40;8.50;;;;;;;31.96;41.93;97689.88;109761;1248;69440;-69
2022/07/02 07:43:03;;;;;;;9.40;8.50;;;;;;;31.34;40.81;97688.65;109965;1249;59685;-69
2022/07/02 07:45:49;;;;;;;9.60;8.50;;;;;;;31.92;41.16;97695.98;110271;1250;59761;-69
2022/07/02 07:48:24;;;;;;;9.60;8.70;;;;;;;32.21;39.44;97693.59;110038;1250;71477;-70
2022/07/02 07:51:00;;;;;;;9.30;8.40;;;;;;;32.40;39.81;97694.39;110041;1250;68570;-70
2022/07/02 07:53:30;;;;;;;10.00;9.00;;;;;;;32.61;39.20;97689.05;110223;1248;69393;-70
2022/07/02 07:56:00;;;;;;;10.00;9.00;;;;;;;32.60;39.03;97683.83;109889;1250;59719;-70
2022/07/02 07:58:30;;;;;;;9.50;8.60;;;;;;;32.45;39.31;97687.52;110012;1250;59697;-68
2022/07/02 08:00:59;;;;;;;8.40;7.70;;;;;;;32.56;39.13;97682.84;110190;1250;71687;-68
2022/07/02 08:03:28;;;;;;;8.90;8.00;;;;;;;32.65;38.80;97683.58;110149;1249;68731;-70
2022/07/02 08:05:57;;;;;;;9.10;8.20;;;;;;;32.57;38.69;97680.81;110133;1250;69456;-68
2022/07/02 08:08:26;;;;;;;9.60;8.70;;;;;;;32.80;37.85;97674.20;110152;1249;59705;-70
2022/07/02 08:10:57;;;;;;;8.90;8.10;;;;;;;32.81;38.29;97668.05;109884;1250;59688;-69
2022/07/02 08:13:26;;;;;;;8.60;7.80;;;;;;;33.15;38.41;97666.80;109844;1250;71603;-67
2022/07/02 08:15:55;;;;;;;9.20;7.60;;;;;;;33.65;37.41;97668.44;109981;1250;67966;-69
2022/07/02 08:18:24;;;;;;;7.80;7.10;;;;;;;33.68;35.91;97667.39;109935;1250;69565;-70
2022/07/02 08:20:53;;;;;;;8.70;7.90;;;;;;;33.80;36.54;97666.89;110081;1248;59706;-68
2022/07/02 08:23:23;;;;;;;9.50;8.60;;;;;;;34.11;36.34;97666.36;109812;1250;59748;-70
2022/07/02 08:25:54;;;;;;;8.10;7.40;;;;;;;34.09;35.70;97664.92;110143;1250;71809;-71
2022/07/02 08:28:23;;;;;;;10.40;9.40;;;;;;;34.33;35.04;97664.02;110140;1250;68685;-69
2022/07/02 08:30:52;;;;;;;9.00;8.20;;;;;;;34.34;34.56;97657.94;109902;1250;68909;-69
2022/07/02 08:33:21;;;;;;;9.30;8.40;;;;;;;34.55;35.15;97657.44;110176;1248;59676;-71
2022/07/02 08:35:51;;;;;;;8.80;8.00;;;;;;;34.66;34.00;97652.52;109933;1250;59758;-71
2022/07/02 08:38:20;;;;;;;8.20;7.50;;;;;;;34.31;34.11;97647.95;109931;1251;71678;-71
2022/07/02 08:40:49;;;;;;;8.50;7.70;;;;;;;34.20;34.74;97641.81;109864;1251;69036;-69
2022/07/02 08:43:26;;;;;;;8.20;7.20;;;;;;;34.16;34.99;97644.52;110132;1250;69549;-71
2022/07/02 08:45:59;;;;;;;8.50;7.80;;;;;;;34.17;34.07;97637.65;109816;1251;59727;-68
2022/07/02 08:48:33;;;;;;;7.30;6.70;;;;;;;34.30;34.10;97634.41;110074;1249;59744;-70
2022/07/02 08:51:03;;;;;;;8.90;8.10;;;;;;;34.44;34.30;97633.18;110090;1250;70838;-70
2022/07/02 08:53:32;;;;;;;7.60;6.90;;;;;;;34.47;34.13;97631.63;109977;1250;68590;-70
2022/07/02 08:56:02;;;;;;;19.20;16.70;;;;;;;34.61;33.59;97635.28;109963;1250;69427;-72
2022/07/02 08:58:31;;;;;;;10.40;9.00;;;;;;;34.84;33.18;97629.79;109880;1250;59701;-70
2022/07/02 09:01:02;;;;;;;7.90;7.20;;;;;;;34.89;32.44;97623.15;110011;1249;59698;-68
2022/07/02 09:03:32;;;;;;;8.30;7.60;;;;;;;34.53;32.75;97620.83;110181;1250;71564;-69
2022/07/02 09:06:03;;;;;;;8.30;7.60;;;;;;;34.98;33.03;97620.76;110002;1249;68633;-70
2022/07/02 09:08:36;;;;;;;6.70;6.10;;;;;;;35.36;32.43;97616.66;109910;1251;69377;-69
2022/07/02 09:11:06;;;;;;;6.80;6.20;;;;;;;35.24;31.08;97611.88;110134;1248;59684;-72
2022/07/02 09:13:38;;;;;;;7.80;7.10;;;;;;;35.46;30.57;97602.90;109996;1249;59726;-72
2022/07/02 09:16:09;;;;;;;8.60;7.80;;;;;;;35.40;30.59;97601.57;110019;1249;71854;-68
2022/07/02 09:18:38;;;;;;;9.20;7.90;;;;;;;35.44;30.32;97603.76;109944;1251;67837;-70
2022/07/02 09:21:11;;;;;;;7.60;6.90;;;;;;;35.34;31.54;97603.11;109925;1250;69467;-69
2022/07/02 09:23:48;;;;;;;8.00;7.30;;;;;;;35.54;31.06;97600.96;109913;1250;60585;-70
2022/07/02 09:26:23;;;;;;;9.90;9.00;;;;;;;35.54;31.21;97599.95;109951;1250;60504;-69
2022/07/02 09:29:00;;;;;;;7.50;6.90;;;;;;;35.83;31.00;97595.05;110048;1249;72163;-70
2022/07/02 09:31:32;;;;;;;7.70;7.00;;;;;;;35.89;30.74;97588.55;109955;1250;68561;-71
2022/07/02 09:34:01;;;;;;;11.00;7.60;;;;;;;36.05;30.75;97590.10;109848;1250;69592;-69
2022/07/02 09:36:36;;;;;;;6.90;6.30;;;;;;;36.20;30.27;97594.25;110091;1250;60477;-69
2022/07/02 09:39:05;;;;;;;7.00;6.30;;;;;;;36.30;29.96;97596.10;109987;1250;60577;-66
2022/07/02 09:41:43;;;;;;;6.30;5.80;;;;;;;36.53;29.83;97600.02;109774;1250;72959;-68
2022/07/02 09:44:12;;;;;;;;;;;;;;;36.20;29.95;97596.79;110040;1250;68513;-70
2022/07/02 09:46:43;;;;;;;8.00;7.30;;;;;;;36.03;29.76;97594.80;110053;1249;68467;-70
2022/07/02 09:49:14;;;;;;;7.20;6.50;;;;;;;35.86;28.94;97593.86;109944;1249;60509;-71
2022/07/02 09:51:52;;;;;;;6.30;5.70;;;;;;;36.14;29.20;97588.85;109832;1251;60518;-69
2022/07/02 09:54:23;;;;;;;7.40;5.50;;;;;;;36.57;28.88;97588.31;109988;1250;72326;-69
2022/07/02 09:56:57;;;;;;;7.60;6.90;;;;;;;36.91;28.47;97584.04;110045;1250;68215;-72
2022/07/02 09:59:26;;;;;;;6.70;6.10;;;;;;;36.44;27.77;97589.65;109938;1250;68768;-70
2022/07/02 10:01:56;;;;;;;7.20;6.50;;;;;;;36.47;27.92;97589.17;109923;1250;60587;-71
2022/07/02 10:04:28;;;;;;;8.20;6.00;;;;;;;36.65;27.47;97583.48;109901;1251;60471;-69
2022/07/02 10:07:00;;;;;;;6.90;6.30;;;;;;;37.00;26.49;97578.70;109840;1250;72147;-70
2022/07/02 10:09:30;;;;;;;6.90;6.20;;;;;;;36.83;26.89;97574.59;109694;1250;68519;-71
2022/07/02 10:12:03;;;;;;;6.30;5.70;;;;;;;36.52;27.49;97569.14;109546;1250;68941;-71
2022/07/02 10:14:35;;;;;;;7.50;6.80;;;;;;;36.69;28.24;97561.21;109878;1251;60497;-69
2022/07/02 10:17:05;;;;;;;8.70;6.80;;;;;;;36.26;27.33;97559.26;109992;1250;60602;-69
2022/07/02 10:19:36;;;;;;;6.40;5.60;;;;;;;36.14;27.06;97556.58;109810;1250;72393;-69
2022/07/02 10:22:07;;;;;;;6.50;5.90;;;;;;;36.21;27.68;97557.45;109941;1250;68742;-66
2022/07/02 10:24:36;;;;;;;6.00;5.50;;;;;;;36.15;29.01;97556.91;109721;1250;69473;-68
2022/07/02 10:27:09;;;;;;;6.10;5.60;;;;;;;36.43;27.42;97556.58;109915;1250;60557;-70
2022/07/02 10:29:41;;;;;;;6.00;5.50;;;;;;;36.55;27.37;97553.89;110114;1250;60836;-69
2022/07/02 10:32:22;;;;;;;6.90;6.20;;;;;;;36.72;27.35;97556.41;109882;1250;70843;-69
2022/07/02 10:35:09;;;;;;;7.00;6.10;;;;;;;36.67;27.25;97555.17;109849;1250;67648;-69
2022/07/02 10:37:39;;;;;;;5.60;5.00;;;;;;;36.99;27.29;97553.20;109922;1250;70016;-70
2022/07/02 10:40:10;;;;;;;6.60;5.90;;;;;;;37.00;26.95;97550.20;109982;1250;60496;-70
2022/07/02 10:42:45;;;;;;;7.20;6.50;;;;;;;36.95;26.76;97552.06;110088;1250;60606;-68
2022/07/02 10:45:18;;;;;;;6.50;5.50;;;;;;;36.90;26.77;97546.56;109934;1250;73056;-68
2022/07/02 10:48:02;;;;;;;6.10;5.50;;;;;;;37.01;27.54;97543.54;109886;1250;68030;-71
2022/07/02 10:50:40;;;;;;;6.40;5.80;;;;;;;37.21;25.86;97537.94;109818;1251;69934;-70
2022/07/02 10:53:17;;;;;;;5.90;5.30;;;;;;;37.35;25.25;97533.41;110162;1247;60538;-69
2022/07/02 10:55:52;;;;;;;6.70;5.00;;;;;;;37.43;25.56;97530.27;110002;1248;60495;-71
2022/07/02 10:58:23;;;;;;;6.00;5.30;;;;;;;37.45;24.77;97528.56;110150;1247;71989;-69
2022/07/02 11:00:53;;;;;;;5.10;4.60;;;;;;;37.12;25.03;97522.67;110195;1247;68757;-70
2022/07/02 11:03:25;;;;;;;8.60;6.40;;;;;;;37.15;25.68;97524.08;110082;1247;68670;-72
2022/07/02 11:06:05;;;;;;;5.40;4.90;;;;;;;36.79;25.51;97525.36;109916;1248;60534;-71
2022/07/02 11:08:48;;;;;;;6.10;5.50;;;;;;;37.04;26.09;97521.57;110230;1247;60485;-72
2022/07/02 11:11:35;;;;;;;6.50;5.60;;;;;;;37.02;26.30;97526.36;110169;1247;70800;-70
2022/07/02 11:14:09;;;;;;;8.30;7.50;;;;;;;36.47;27.35;97531.42;110161;1247;68960;-72
2022/07/02 11:16:49;;;;;;;8.80;7.80;;;;;;;36.01;29.57;97535.52;110142;1247;69547;-71
2022/07/02 11:19:29;;;;;;;8.90;8.10;;;;;;;35.86;30.15;97534.00;110232;1247;60578;-72
2022/07/02 11:22:02;;;;;;;9.70;8.80;;;;;;;35.72;29.70;97538.70;110159;1247;60495;-71
2022/07/02 11:24:33;;;;;;;10.00;9.00;;;;;;;35.24;30.28;97534.17;110168;1247;72376;-69
2022/07/02 11:27:16;;;;;;;11.20;9.40;;;;;;;34.15;32.27;97532.14;110301;1247;68452;-69
2022/07/02 11:29:55;;;;;;;10.60;9.60;;;;;;;34.28;32.01;97533.64;110093;1247;69518;-67
2022/07/02 11:32:34;;;;;;;9.20;8.30;;;;;;;34.05;32.05;97531.19;110137;1247;60525;-69
2022/07/02 11:35:03;;;;;;;8.90;8.10;;;;;;;33.59;33.24;97528.09;109916;1247;60455;-69
2022/07/02 11:37:33;;;;;;;9.40;8.30;;;;;;;33.71;32.98;97524.48;110165;1247;71623;-70
2022/07/02 11:40:02;;;;;;;9.90;9.00;;;;;;;33.59;33.15;97520.72;110174;1247;67680;-69
2022/07/02 11:42:36;;;;;;;8.20;7.40;;;;;;;33.65;32.92;97525.40;109949;1247;69465;-68